Main page
METAR-TAF:

Airports :

Gloucester, England

Gloucestershire Airport

latitude: 51-54N, longitude: 002-10W, elevation: 29 m

Current weather observation

The report was made 37 minutes ago, at 09:20 UTC
Wind 7 kt from the West/Northwest, varying between West/Southwest and North/Northwest
Temperature 19°C
Humidity 60%
Pressure 1019 hPa
Visibility 10 km or more
Few clouds at a height of 2500 ft

METAR: EGBJ 250920Z 29007KT 240V330 9999 FEW025 19/11 Q1019

Time: 10:57 (09:57 UTC)

Forecast

The report was made 2 hours and 0 minutes ago, at 07:57 UTC
Forecast valid from 25 at 09 UTC to 25 at 18 UTC
Wind 7 kt from the West
Visibility 10 km or more
Few clouds at a height of 2500 ft

TAF: EGBJ 250757Z 2509/2518 27007KT 9999 FEW025

METAR-TAF

Weather observations and forecasts of more than 4000 airports (METAR and TAF reports).

The available stations are represented by yellow and red dots on the map.

Hover mouse over dot to see the name of the station.

Then click to see weather observations and forecasts.

To change the map : click on the green buttons with a black cross to zoom in, on the green button with a dash to zoom out, or on the green arrows for adjacent maps.


METAR-TAF: